Time;durP1;ratioP1;P1;durP2;ratioP2;P2;SDS_P1;SDS_P2;PMS_P1;PMS_P2;Temp;Humidity;BMP_temperature;BMP_pressure;BME280_temperature;BME280_humidity;BME280_pressure;Samples;Min_cycle;Max_cycle;Signal;HPM_P1;HPM_P2
2021/11/06 00:01:05;;;;;;;11.73;7.47;;;10.60;99.90;;;;;;5013748;28;20201;-44
2021/11/06 00:03:31;;;;;;;9.60;7.53;;;10.60;99.90;;;;;;5014533;28;20175;-45
2021/11/06 00:05:57;;;;;;;9.13;7.57;;;10.60;99.90;;;;;;5016384;28;20206;-45
2021/11/06 00:08:22;;;;;;;9.63;7.10;;;10.60;99.90;;;;;;5019974;28;20190;-44
2021/11/06 00:10:48;;;;;;;9.67;7.53;;;10.60;99.90;;;;;;5022062;28;20182;-47
2021/11/06 00:13:14;;;;;;;10.37;8.17;;;10.60;99.90;;;;;;5025718;28;20460;-49
2021/11/06 00:15:40;;;;;;;13.43;8.73;;;10.50;99.90;;;;;;5011654;28;20233;-47
2021/11/06 00:18:06;;;;;;;12.77;8.43;;;10.40;99.90;;;;;;5019096;28;20793;-49
2021/11/06 00:20:32;;;;;;;14.63;8.23;;;10.20;99.90;;;;;;5020358;28;20433;-45
2021/11/06 00:22:57;;;;;;;9.23;7.20;;;10.50;99.90;;;;;;5008449;28;20286;-45
2021/11/06 00:25:24;;;;;;;8.60;7.70;;;10.30;99.90;;;;;;5019123;28;20328;-45
2021/11/06 00:27:50;;;;;;;9.77;7.93;;;10.40;99.90;;;;;;5018190;28;20203;-46
2021/11/06 00:30:15;;;;;;;10.97;8.10;;;10.40;99.90;;;;;;5009111;28;20453;-44
2021/11/06 00:32:41;;;;;;;7.50;6.63;;;10.30;99.90;;;;;;5018722;28;20654;-44
2021/11/06 00:35:08;;;;;;;8.43;7.47;;;10.20;99.90;;;;;;5020942;28;20187;-45
2021/11/06 00:37:36;;;;;;;10.03;7.10;;;10.30;99.90;;;;;;5018024;28;20195;-48
2021/11/06 00:40:02;;;;;;;9.43;6.90;;;10.10;99.90;;;;;;5011425;28;20421;-48
2021/11/06 00:42:27;;;;;;;12.30;7.70;;;10.10;99.90;;;;;;5012123;28;20425;-45
2021/11/06 00:44:53;;;;;;;8.60;6.77;;;10.10;99.90;;;;;;5010825;28;20453;-44
2021/11/06 00:47:18;;;;;;;11.77;8.30;;;10.10;99.90;;;;;;5014180;28;20192;-44
2021/11/06 00:49:44;;;;;;;8.40;7.10;;;9.90;99.90;;;;;;5023436;28;20183;-48
2021/11/06 00:52:10;;;;;;;8.53;6.27;;;9.90;99.90;;;;;;5011080;28;20198;-45
2021/11/06 00:54:36;;;;;;;10.90;6.77;;;10.10;99.90;;;;;;5010830;28;20201;-44
2021/11/06 00:57:02;;;;;;;9.87;6.60;;;9.80;99.90;;;;;;5018179;28;20207;-45
2021/11/06 00:59:27;;;;;;;7.83;6.53;;;9.90;99.90;;;;;;5008806;28;20191;-44
2021/11/06 01:01:53;;;;;;;7.90;7.07;;;9.80;99.90;;;;;;5012228;28;20187;-44
2021/11/06 01:04:19;;;;;;;7.53;6.47;;;9.70;99.90;;;;;;5016039;28;20241;-45
2021/11/06 01:06:44;;;;;;;7.47;5.83;;;9.60;99.90;;;;;;5014463;28;20451;-45
2021/11/06 01:09:10;;;;;;;9.27;6.10;;;9.50;99.90;;;;;;5008135;28;20658;-48
2021/11/06 01:11:36;;;;;;;6.20;5.60;;;9.30;99.90;;;;;;5016150;28;20217;-46
2021/11/06 01:14:03;;;;;;;11.10;7.43;;;9.50;99.90;;;;;;5006564;28;20651;-45
2021/11/06 01:16:29;;;;;;;11.93;7.60;;;9.40;99.90;;;;;;5009909;28;20646;-45
2021/11/06 01:18:55;;;;;;;10.50;6.50;;;9.40;99.90;;;;;;5017351;28;20947;-44
2021/11/06 01:21:20;;;;;;;9.80;6.90;;;9.30;99.90;;;;;;5022355;28;20445;-46
2021/11/06 01:23:46;;;;;;;9.60;6.10;;;9.40;99.90;;;;;;5011048;28;20477;-47
2021/11/06 01:26:12;;;;;;;12.10;6.40;;;9.40;99.90;;;;;;5012165;28;20226;-47
2021/11/06 01:28:39;;;;;;;7.03;6.23;;;9.30;99.90;;;;;;5008231;28;20808;-45
2021/11/06 01:31:04;;;;;;;9.20;6.37;;;9.20;99.90;;;;;;5007743;28;21067;-44
2021/11/06 01:33:30;;;;;;;9.20;7.47;;;9.10;99.90;;;;;;5024337;28;20437;-44
2021/11/06 01:35:56;;;;;;;10.07;7.77;;;9.00;99.90;;;;;;5022503;28;20397;-44
2021/11/06 01:38:21;;;;;;;10.90;6.83;;;9.00;99.90;;;;;;5011360;28;20183;-48
2021/11/06 01:40:47;;;;;;;8.37;6.93;;;9.10;99.90;;;;;;5017568;28;20425;-46
2021/11/06 01:43:13;;;;;;;7.90;6.70;;;8.90;99.90;;;;;;5010718;28;20796;-47
2021/11/06 01:45:39;;;;;;;10.17;7.50;;;9.00;99.90;;;;;;5007530;28;20858;-46
2021/11/06 01:48:05;;;;;;;10.10;7.77;;;8.90;99.90;;;;;;5013318;28;20440;-45
2021/11/06 01:50:31;;;;;;;10.00;8.13;;;8.90;99.90;;;;;;5022988;28;20186;-45
2021/11/06 01:52:57;;;;;;;10.90;8.67;;;8.90;99.90;;;;;;5006954;28;20434;-45
2021/11/06 01:55:23;;;;;;;14.63;10.17;;;9.10;99.90;;;;;;5017397;28;20943;-45
2021/11/06 01:57:49;;;;;;;11.43;8.80;;;8.80;99.90;;;;;;5010449;28;20206;-45
2021/11/06 02:00:25;;;;;;;10.60;9.50;;;8.70;99.90;;;;;;5008425;28;20463;-47
2021/11/06 02:02:51;;;;;;;12.03;9.83;;;8.70;99.90;;;;;;5013579;28;20437;-46
2021/11/06 02:05:17;;;;;;;15.00;11.63;;;9.00;99.90;;;;;;5021911;28;20465;-44
2021/11/06 02:07:43;;;;;;;17.40;12.27;;;8.90;99.90;;;;;;5020534;28;20484;-45
2021/11/06 02:10:10;;;;;;;14.80;12.00;;;9.00;99.90;;;;;;5010266;28;20433;-45
2021/11/06 02:12:38;;;;;;;14.17;11.07;;;8.80;99.90;;;;;;5007163;28;20417;-45
2021/11/06 02:15:05;;;;;;;14.40;11.23;;;8.80;99.90;;;;;;5006819;28;20423;-44
2021/11/06 02:17:31;;;;;;;16.23;12.23;;;8.80;99.90;;;;;;5013212;28;20441;-51
2021/11/06 02:19:57;;;;;;;16.50;11.57;;;8.50;99.90;;;;;;5019122;28;20649;-44
2021/11/06 02:22:23;;;;;;;14.07;10.93;;;8.40;99.90;;;;;;5017160;28;20546;-45
2021/11/06 02:24:49;;;;;;;17.37;10.83;;;8.60;99.90;;;;;;5006043;28;20849;-45
2021/11/06 02:27:15;;;;;;;14.43;10.30;;;8.50;99.90;;;;;;5007688;28;20425;-45
2021/11/06 02:29:40;;;;;;;14.43;10.00;;;8.40;99.90;;;;;;5006741;28;20191;-44
2021/11/06 02:32:08;;;;;;;13.73;10.27;;;8.70;99.90;;;;;;5014294;28;20199;-47
2021/11/06 02:34:33;;;;;;;14.47;10.73;;;8.50;99.90;;;;;;5008060;28;20183;-45
2021/11/06 02:36:59;;;;;;;18.00;10.27;;;8.50;99.90;;;;;;5009256;28;20509;-45
2021/11/06 02:39:25;;;;;;;16.70;11.17;;;8.30;99.90;;;;;;5006581;28;20294;-45
2021/11/06 02:42:03;;;;;;;17.13;10.03;;;8.40;99.90;;;;;;5016358;28;20672;-45
2021/11/06 02:44:30;;;;;;;14.87;9.90;;;8.40;99.90;;;;;;5005783;28;20207;-44
2021/11/06 02:46:56;;;;;;;15.37;9.93;;;8.40;99.90;;;;;;5009564;28;20927;-48
2021/11/06 02:49:22;;;;;;;15.53;9.60;;;8.30;99.90;;;;;;5012709;28;20461;-49
2021/11/06 02:51:48;;;;;;;16.20;10.20;;;8.40;99.90;;;;;;5016989;28;20462;-46
2021/11/06 02:54:14;;;;;;;18.83;10.87;;;8.40;99.90;;;;;;5012009;28;20509;-48
2021/11/06 02:56:40;;;;;;;18.37;9.73;;;8.40;99.90;;;;;;5011162;28;20240;-50
2021/11/06 02:59:05;;;;;;;17.00;9.57;;;8.50;99.90;;;;;;5006192;28;20481;-48
2021/11/06 03:01:31;;;;;;;15.00;9.80;;;8.20;99.90;;;;;;5006417;28;20417;-48
2021/11/06 03:03:57;;;;;;;16.73;11.00;;;8.20;99.90;;;;;;5015955;28;20601;-46
2021/11/06 03:06:23;;;;;;;14.37;9.30;;;8.20;99.90;;;;;;5019206;28;20268;-46
2021/11/06 03:08:48;;;;;;;18.70;10.23;;;8.20;99.90;;;;;;5010867;28;20376;-49
2021/11/06 03:11:14;;;;;;;16.23;9.43;;;8.20;99.90;;;;;;5007968;28;20430;-45
2021/11/06 03:13:42;;;;;;;15.20;9.20;;;8.00;99.90;;;;;;5003659;28;20199;-47
2021/11/06 03:16:08;;;;;;;18.37;10.80;;;8.00;99.90;;;;;;5006094;28;20555;-48
2021/11/06 03:18:34;;;;;;;12.50;8.43;;;8.00;99.90;;;;;;5012388;28;20564;-47
2021/11/06 03:21:00;;;;;;;13.57;9.50;;;8.30;99.90;;;;;;5020280;28;20425;-44
2021/11/06 03:23:27;;;;;;;13.23;9.70;;;8.40;99.90;;;;;;5005340;28;20987;-46
2021/11/06 03:25:54;;;;;;;16.00;9.57;;;8.20;99.90;;;;;;5011571;28;20457;-45
2021/11/06 03:28:21;;;;;;;14.67;8.77;;;8.20;99.90;;;;;;5010898;28;20432;-47
2021/11/06 03:30:47;;;;;;;14.50;9.07;;;8.30;99.90;;;;;;5006073;28;20415;-49
2021/11/06 03:33:12;;;;;;;12.60;9.43;;;8.00;99.90;;;;;;5012896;28;20494;-47
2021/11/06 03:35:38;;;;;;;16.43;9.13;;;8.10;99.90;;;;;;5014310;28;20438;-46
2021/11/06 03:38:04;;;;;;;15.87;9.07;;;8.20;99.90;;;;;;5009999;28;20198;-47
2021/11/06 03:40:30;;;;;;;13.10;8.67;;;8.20;99.90;;;;;;5007205;28;20187;-47
2021/11/06 03:42:56;;;;;;;12.73;9.17;;;8.10;99.90;;;;;;5010295;28;20248;-50
2021/11/06 03:45:22;;;;;;;13.70;9.37;;;7.70;99.90;;;;;;5008093;28;20653;-46
2021/11/06 03:47:48;;;;;;;11.87;7.97;;;7.90;99.90;;;;;;5018641;28;20430;-46
2021/11/06 03:50:14;;;;;;;18.13;10.20;;;7.80;99.90;;;;;;5021082;28;20552;-46
2021/11/06 03:52:40;;;;;;;14.97;9.00;;;7.80;99.90;;;;;;5020907;28;20417;-48
2021/11/06 03:55:08;;;;;;;13.80;8.73;;;8.00;99.90;;;;;;5013147;28;20969;-45
2021/11/06 03:57:34;;;;;;;13.03;8.67;;;7.90;99.90;;;;;;5010394;28;20632;-45
2021/11/06 04:00:00;;;;;;;12.30;8.70;;;8.00;99.90;;;;;;5005829;28;20778;-46
2021/11/06 04:02:26;;;;;;;14.90;9.83;;;7.80;99.90;;;;;;5007147;28;20587;-46
2021/11/06 04:04:52;;;;;;;13.20;9.73;;;7.90;99.90;;;;;;5014178;28;20198;-44
2021/11/06 04:07:17;;;;;;;16.23;10.10;;;7.80;99.90;;;;;;5016018;28;20280;-45
2021/11/06 04:09:43;;;;;;;16.87;10.43;;;8.00;99.90;;;;;;5005749;28;20329;-47
2021/11/06 04:12:09;;;;;;;14.80;10.03;;;7.90;99.90;;;;;;5015459;28;20191;-49
2021/11/06 04:14:34;;;;;;;15.80;11.10;;;7.80;99.90;;;;;;5008704;28;20210;-45
2021/11/06 04:17:00;;;;;;;17.67;10.53;;;7.80;99.90;;;;;;5022386;28;20356;-44
2021/11/06 04:19:26;;;;;;;18.87;10.10;;;7.80;99.90;;;;;;5007137;28;20194;-45
2021/11/06 04:21:52;;;;;;;20.60;11.70;;;7.90;99.90;;;;;;5014554;28;20417;-49
2021/11/06 04:24:18;;;;;;;14.23;10.70;;;7.90;99.90;;;;;;5004734;28;20474;-45
2021/11/06 04:26:43;;;;;;;17.40;11.00;;;7.90;99.90;;;;;;5011259;28;20436;-44
2021/11/06 04:29:09;;;;;;;14.97;10.23;;;8.10;99.90;;;;;;5005958;28;20433;-47
2021/11/06 04:31:35;;;;;;;18.47;11.80;;;8.10;99.90;;;;;;5008244;28;20230;-48
2021/11/06 04:34:01;;;;;;;18.33;12.13;;;8.00;99.90;;;;;;5008612;28;20215;-46
2021/11/06 04:36:28;;;;;;;15.80;11.23;;;8.00;99.90;;;;;;5015635;28;20670;-45
2021/11/06 04:38:54;;;;;;;15.70;11.07;;;8.00;99.90;;;;;;5017393;28;20677;-46
2021/11/06 04:41:20;;;;;;;18.10;10.90;;;8.20;99.90;;;;;;5015190;28;20425;-46
2021/11/06 04:43:46;;;;;;;15.03;10.93;;;8.20;99.90;;;;;;5008509;28;20429;-46
2021/11/06 04:46:12;;;;;;;15.57;10.07;;;8.10;99.90;;;;;;5008690;28;20579;-46
2021/11/06 04:48:37;;;;;;;12.67;9.93;;;7.90;99.90;;;;;;5011272;28;20442;-46
2021/11/06 04:51:03;;;;;;;14.93;11.10;;;7.80;99.90;;;;;;5015194;28;20279;-45
2021/11/06 04:53:29;;;;;;;13.13;10.13;;;8.00;99.90;;;;;;5010554;28;20183;-48
2021/11/06 04:55:55;;;;;;;14.27;10.97;;;8.20;99.90;;;;;;5022938;28;20453;-49
2021/11/06 04:58:21;;;;;;;14.00;9.47;;;8.00;99.90;;;;;;5020145;28;20262;-45
2021/11/06 05:00:47;;;;;;;15.63;10.87;;;8.10;99.90;;;;;;5008340;28;21100;-48
2021/11/06 05:03:14;;;;;;;12.73;8.83;;;8.20;99.90;;;;;;5011649;28;20186;-46
2021/11/06 05:05:41;;;;;;;14.07;9.30;;;8.10;99.90;;;;;;5015424;28;20302;-48
2021/11/06 05:08:06;;;;;;;12.50;7.70;;;8.00;99.90;;;;;;5012071;28;20975;-47
2021/11/06 05:10:32;;;;;;;13.03;9.20;;;8.00;99.90;;;;;;5008356;28;20422;-45
2021/11/06 05:12:58;;;;;;;12.10;8.47;;;8.10;99.90;;;;;;5012662;28;20183;-47
2021/11/06 05:15:23;;;;;;;12.20;7.77;;;7.90;99.90;;;;;;5008448;28;20430;-48
2021/11/06 05:17:49;;;;;;;8.40;7.03;;;8.00;99.90;;;;;;5012735;28;20298;-46
2021/11/06 05:20:15;;;;;;;9.67;6.80;;;7.80;99.90;;;;;;5022414;28;20191;-48
2021/11/06 05:22:41;;;;;;;12.93;7.63;;;8.00;99.90;;;;;;5023825;28;20507;-45
2021/11/06 05:25:08;;;;;;;10.27;7.33;;;8.00;99.90;;;;;;5013391;28;20219;-44
2021/11/06 05:27:34;;;;;;;12.57;7.60;;;7.90;99.90;;;;;;5011489;28;20189;-48
2021/11/06 05:30:00;;;;;;;14.43;7.27;;;8.00;99.90;;;;;;5008008;28;21004;-45
2021/11/06 05:32:26;;;;;;;9.23;8.00;;;8.00;99.90;;;;;;5008107;28;20948;-47
2021/11/06 05:34:52;;;;;;;11.33;7.27;;;8.00;99.90;;;;;;5016225;28;20443;-45
2021/11/06 05:37:18;;;;;;;12.70;7.70;;;7.70;99.90;;;;;;5024049;28;20923;-45
2021/11/06 05:39:44;;;;;;;9.47;7.10;;;7.80;99.90;;;;;;5007686;28;20191;-48
2021/11/06 05:42:10;;;;;;;11.60;8.00;;;7.90;99.90;;;;;;5012283;28;20506;-45
2021/11/06 05:44:36;;;;;;;10.23;7.50;;;7.80;99.90;;;;;;5018796;28;20254;-46
2021/11/06 05:47:02;;;;;;;9.10;7.37;;;7.90;99.90;;;;;;5007840;28;20949;-46
2021/11/06 05:49:28;;;;;;;11.87;8.10;;;7.90;99.90;;;;;;5011269;28;20191;-45
2021/11/06 05:51:53;;;;;;;10.83;8.00;;;7.70;99.90;;;;;;5019808;28;20788;-44
2021/11/06 05:54:20;;;;;;;13.30;9.20;;;8.10;99.90;;;;;;5010930;28;20207;-48
2021/11/06 05:56:45;;;;;;;16.87;8.93;;;7.70;99.90;;;;;;5027065;28;20190;-46
2021/11/06 05:59:12;;;;;;;12.23;8.73;;;7.80;99.90;;;;;;5012342;28;20421;-47
2021/11/06 06:01:37;;;;;;;13.03;8.40;;;7.70;99.90;;;;;;5007440;28;20184;-46
2021/11/06 06:04:03;;;;;;;11.50;8.40;;;7.50;99.90;;;;;;5012170;28;20440;-45
2021/11/06 06:06:29;;;;;;;17.33;8.27;;;7.40;99.90;;;;;;5015158;28;20457;-44
2021/11/06 06:08:55;;;;;;;11.63;8.13;;;7.50;99.90;;;;;;5024687;28;20844;-45
2021/11/06 06:11:20;;;;;;;10.57;8.10;;;7.60;99.90;;;;;;5007454;28;20418;-44
2021/11/06 06:13:46;;;;;;;15.83;9.37;;;7.70;99.90;;;;;;5008969;28;20219;-46
2021/11/06 06:16:12;;;;;;;14.97;7.77;;;7.60;99.90;;;;;;5007308;28;20191;-47
2021/11/06 06:18:38;;;;;;;12.37;8.97;;;7.70;99.90;;;;;;5024349;28;20178;-46
2021/11/06 06:21:03;;;;;;;10.77;8.20;;;7.70;99.90;;;;;;5026192;28;20332;-47
2021/11/06 06:23:29;;;;;;;14.03;8.90;;;7.60;99.90;;;;;;5021541;28;20194;-48
2021/11/06 06:25:55;;;;;;;12.93;9.50;;;7.50;99.90;;;;;;5007064;28;20245;-44
2021/11/06 06:28:21;;;;;;;11.67;8.80;;;7.70;99.90;;;;;;5017329;28;20178;-50
2021/11/06 06:30:46;;;;;;;14.20;8.90;;;7.70;99.90;;;;;;5019787;28;20433;-45
2021/11/06 06:33:12;;;;;;;13.20;9.87;;;7.60;99.90;;;;;;5006067;28;20187;-46
2021/11/06 06:35:38;;;;;;;13.80;9.60;;;7.50;99.90;;;;;;5011833;28;20585;-46
2021/11/06 06:38:03;;;;;;;12.93;9.13;;;7.30;99.90;;;;;;5017799;28;20201;-49
2021/11/06 06:40:30;;;;;;;13.30;9.17;;;7.30;99.90;;;;;;5007675;28;20195;-49
2021/11/06 06:42:55;;;;;;;10.80;8.33;;;7.40;99.90;;;;;;5014850;28;20186;-47
2021/11/06 06:45:22;;;;;;;14.70;9.83;;;7.50;99.90;;;;;;5007431;28;20552;-46
2021/11/06 06:47:49;;;;;;;17.13;8.70;;;7.50;99.90;;;;;;5006960;28;20492;-47
2021/11/06 06:50:14;;;;;;;13.50;8.23;;;7.50;99.90;;;;;;5006718;28;20525;-46
2021/11/06 06:52:41;;;;;;;13.50;9.13;;;7.70;99.90;;;;;;5016014;28;20953;-48
2021/11/06 06:55:08;;;;;;;14.47;9.40;;;7.70;99.90;;;;;;5014256;28;20193;-49
2021/11/06 06:57:34;;;;;;;12.27;8.50;;;7.60;99.90;;;;;;5024351;28;20495;-48
2021/11/06 07:00:01;;;;;;;13.80;8.83;;;7.80;99.90;;;;;;5006703;28;20430;-50
2021/11/06 07:02:27;;;;;;;14.80;8.57;;;7.90;99.90;;;;;;5006452;28;20470;-47
2021/11/06 07:04:52;;;;;;;14.60;8.20;;;7.80;99.90;;;;;;5009264;28;20476;-50
2021/11/06 07:07:18;;;;;;;13.03;8.80;;;7.90;99.90;;;;;;5020323;28;20456;-47
2021/11/06 07:09:44;;;;;;;14.40;9.33;;;8.00;99.90;;;;;;5008410;28;20485;-48
2021/11/06 07:12:10;;;;;;;11.90;7.90;;;8.00;99.90;;;;;;5005410;28;20191;-46
2021/11/06 07:14:35;;;;;;;11.90;8.17;;;8.00;99.90;;;;;;5005249;28;20195;-46
2021/11/06 07:17:01;;;;;;;14.50;9.20;;;8.00;99.90;;;;;;5016329;28;20613;-45
2021/11/06 07:19:27;;;;;;;13.30;8.80;;;8.10;99.90;;;;;;5029638;28;20191;-45
2021/11/06 07:21:53;;;;;;;13.60;8.30;;;8.00;99.90;;;;;;5011616;28;20417;-47
2021/11/06 07:24:19;;;;;;;14.77;8.30;;;8.00;99.90;;;;;;5008731;28;20627;-45
2021/11/06 07:26:45;;;;;;;15.50;9.63;;;8.10;99.90;;;;;;5005390;28;20395;-46
2021/11/06 07:29:11;;;;;;;11.10;8.67;;;8.10;99.90;;;;;;5015927;28;20187;-49
2021/11/06 07:31:37;;;;;;;12.60;7.90;;;8.10;99.90;;;;;;5005658;28;20212;-46
2021/11/06 07:34:03;;;;;;;11.90;7.93;;;8.10;99.90;;;;;;5007350;28;21009;-47
2021/11/06 07:36:28;;;;;;;12.80;9.30;;;8.10;99.90;;;;;;5014787;28;20612;-47
2021/11/06 07:38:54;;;;;;;12.20;8.73;;;8.10;99.90;;;;;;5031383;28;20743;-45
2021/11/06 07:41:22;;;;;;;11.20;8.17;;;8.40;99.90;;;;;;5031861;28;20214;-49
2021/11/06 07:43:48;;;;;;;17.13;9.00;;;8.50;99.90;;;;;;5035635;28;20295;-47
2021/11/06 07:46:14;;;;;;;16.00;8.33;;;8.70;99.90;;;;;;5033900;28;20555;-45
2021/11/06 07:48:40;;;;;;;11.40;8.50;;;8.70;99.90;;;;;;5032933;28;20428;-47
2021/11/06 07:51:06;;;;;;;13.43;8.57;;;9.20;99.90;;;;;;5018679;28;20434;-45
2021/11/06 07:53:31;;;;;;;9.77;7.33;;;9.60;99.90;;;;;;5018696;28;20190;-47
2021/11/06 07:55:57;;;;;;;13.17;8.57;;;9.70;99.90;;;;;;5025537;28;20429;-44
2021/11/06 07:58:23;;;;;;;11.90;7.70;;;9.60;99.90;;;;;;5017292;28;20210;-45
2021/11/06 08:00:49;;;;;;;12.23;8.23;;;9.50;99.90;;;;;;5004639;28;20437;-45
2021/11/06 08:03:15;;;;;;;9.83;6.80;;;9.40;99.90;;;;;;5004882;28;20199;-45
2021/11/06 08:05:42;;;;;;;10.70;7.97;;;9.40;99.90;;;;;;5013496;28;20615;-46
2021/11/06 08:08:08;;;;;;;11.13;7.10;;;9.20;99.90;;;;;;5023939;28;20425;-46
2021/11/06 08:10:34;;;;;;;11.87;8.20;;;9.20;99.90;;;;;;5009438;28;20409;-47
2021/11/06 08:13:02;;;;;;;8.73;7.30;;;9.10;99.90;;;;;;5011614;28;20424;-45
2021/11/06 08:15:28;;;;;;;11.17;7.60;;;9.10;99.90;;;;;;5014063;28;20426;-48
2021/11/06 08:17:54;;;;;;;8.27;6.37;;;9.10;99.90;;;;;;5015551;28;20426;-48
2021/11/06 08:20:22;;;;;;;11.00;7.30;;;8.90;99.90;;;;;;5028863;28;20572;-44
2021/11/06 08:22:49;;;;;;;9.57;7.30;;;8.90;99.90;;;;;;5019317;28;20179;-47
2021/11/06 08:25:16;;;;;;;12.77;7.57;;;9.00;99.90;;;;;;5012218;28;20469;-51
2021/11/06 08:27:47;;;;;;;12.30;8.90;;;8.90;99.90;;;;;;5010901;28;20497;-45
2021/11/06 08:30:18;;;;;;;11.17;6.83;;;8.80;99.90;;;;;;5012865;28;20465;-45
2021/11/06 08:32:44;;;;;;;11.87;8.07;;;8.70;99.90;;;;;;5008763;28;20505;-45
2021/11/06 08:35:11;;;;;;;9.53;7.10;;;8.90;99.90;;;;;;5011419;28;20441;-48
2021/11/06 08:37:38;;;;;;;8.97;6.80;;;8.90;99.90;;;;;;5029247;28;20799;-48
2021/11/06 08:40:05;;;;;;;8.97;6.97;;;9.20;99.90;;;;;;5030758;28;20426;-47
2021/11/06 08:42:32;;;;;;;10.33;6.37;;;8.90;99.90;;;;;;5035222;28;20423;-49
2021/11/06 08:44:58;;;;;;;9.13;6.70;;;8.80;99.90;;;;;;5034199;28;20800;-47
2021/11/06 08:47:24;;;;;;;9.47;6.40;;;8.80;99.90;;;;;;5048609;28;20412;-46
2021/11/06 08:49:50;;;;;;;7.10;6.20;;;9.20;99.90;;;;;;5017264;28;20305;-46
2021/11/06 08:52:20;;;;;;;7.30;6.20;;;9.20;99.90;;;;;;5021355;28;20429;-45
2021/11/06 08:54:50;;;;;;;7.93;6.70;;;9.20;99.90;;;;;;5021784;28;20297;-46
2021/11/06 08:57:18;;;;;;;7.17;6.43;;;9.70;99.90;;;;;;5028258;28;20491;-46
2021/11/06 08:59:48;;;;;;;9.47;7.20;;;9.60;99.90;;;;;;5041665;28;20432;-45
2021/11/06 09:02:14;;;;;;;9.30;7.10;;;9.50;99.90;;;;;;5022834;28;20418;-46
2021/11/06 09:04:39;;;;;;;8.20;6.63;;;9.50;99.90;;;;;;5009416;28;20812;-48
2021/11/06 09:07:05;;;;;;;8.43;7.10;;;9.40;99.90;;;;;;5015337;28;20466;-48
2021/11/06 09:09:31;;;;;;;9.53;6.57;;;9.50;99.90;;;;;;5017536;28;20675;-46
2021/11/06 09:11:57;;;;;;;10.60;6.20;;;9.60;99.90;;;;;;5007911;28;20480;-47
2021/11/06 09:14:23;;;;;;;11.27;6.37;;;9.80;99.90;;;;;;5013879;28;20182;-46
2021/11/06 09:16:49;;;;;;;7.83;6.33;;;9.70;99.90;;;;;;5012626;28;20196;-48
2021/11/06 09:19:15;;;;;;;7.70;6.70;;;9.60;99.90;;;;;;5010237;28;20432;-49
2021/11/06 09:21:42;;;;;;;8.43;6.33;;;9.60;99.90;;;;;;5015832;28;20869;-46
2021/11/06 09:24:08;;;;;;;9.47;6.77;;;9.50;99.90;;;;;;5016905;28;20281;-48
2021/11/06 09:26:38;;;;;;;9.27;6.97;;;9.40;99.90;;;;;;5022399;28;20564;-46
2021/11/06 09:29:05;;;;;;;12.43;7.00;;;9.30;99.90;;;;;;5028339;28;20343;-45
2021/11/06 09:31:31;;;;;;;9.97;6.73;;;9.40;99.90;;;;;;5020258;28;20491;-46
2021/11/06 09:33:57;;;;;;;8.97;6.50;;;9.60;99.90;;;;;;5021991;28;20425;-49
2021/11/06 09:36:24;;;;;;;7.73;6.50;;;9.50;99.90;;;;;;5019109;28;20525;-45
2021/11/06 09:38:50;;;;;;;6.63;5.60;;;9.50;99.90;;;;;;5022951;28;20417;-49
2021/11/06 09:41:17;;;;;;;8.43;6.20;;;9.60;99.90;;;;;;5015496;28;20432;-46
2021/11/06 09:43:43;;;;;;;8.00;6.43;;;9.40;99.90;;;;;;5016231;28;20421;-45
2021/11/06 09:46:10;;;;;;;8.53;6.50;;;9.50;99.90;;;;;;5015246;28;20543;-48
2021/11/06 09:48:38;;;;;;;8.00;6.50;;;9.50;99.90;;;;;;5013906;28;20426;-45
2021/11/06 09:51:03;;;;;;;7.80;5.97;;;9.60;99.90;;;;;;5016436;28;20425;-50
2021/11/06 09:53:36;;;;;;;8.40;6.80;;;9.50;99.90;;;;;;5027769;28;20719;-46
2021/11/06 09:56:01;;;;;;;7.50;6.37;;;9.50;99.90;;;;;;5015649;28;20273;-50
2021/11/06 09:58:27;;;;;;;6.30;5.70;;;9.30;99.90;;;;;;5024096;28;20910;-49
2021/11/06 10:00:53;;;;;;;8.60;6.80;;;9.40;99.90;;;;;;5007515;28;20441;-48
2021/11/06 10:03:19;;;;;;;6.73;5.73;;;9.40;99.90;;;;;;5028283;28;20515;-48
2021/11/06 10:05:47;;;;;;;7.87;6.47;;;9.50;99.90;;;;;;5010831;28;20818;-49
2021/11/06 10:08:22;;;;;;;6.70;5.90;;;9.40;99.90;;;;;;5027093;28;20187;-48
2021/11/06 10:10:50;;;;;;;7.00;6.20;;;9.60;99.90;;;;;;5020106;28;20417;-46
2021/11/06 10:13:17;;;;;;;6.50;5.90;;;9.90;99.90;;;;;;5005045;28;21045;-48
2021/11/06 10:15:52;;;;;;;6.47;5.40;;;9.70;99.90;;;;;;5008450;28;20422;-51
2021/11/06 10:18:24;;;;;;;8.80;5.80;;;9.90;99.90;;;;;;5022388;28;20554;-48
2021/11/06 10:20:59;;;;;;;7.27;6.07;;;9.80;99.90;;;;;;5037813;28;20456;-46
2021/11/06 10:23:35;;;;;;;6.70;5.93;;;9.80;99.90;;;;;;5017882;28;20519;-49
2021/11/06 10:26:27;;;;;;;6.97;5.80;;;9.90;99.90;;;;;;5009310;28;20480;-45
2021/11/06 10:29:10;;;;;;;7.23;5.93;;;9.90;99.90;;;;;;5008549;28;21087;-48
2021/11/06 10:31:52;;;;;;;6.87;5.70;;;10.00;99.90;;;;;;5012911;28;20414;-48
2021/11/06 10:34:20;;;;;;;7.63;6.17;;;10.10;99.90;;;;;;5005997;28;20661;-48
2021/11/06 10:37:00;;;;;;;6.90;6.17;;;10.10;99.90;;;;;;5012461;28;20690;-49
2021/11/06 10:39:26;;;;;;;6.57;5.87;;;10.20;99.90;;;;;;5019117;28;20425;-46
2021/11/06 10:41:52;;;;;;;8.20;5.90;;;10.30;99.90;;;;;;5005280;28;20817;-50
2021/11/06 10:44:21;;;;;;;6.70;6.00;;;10.40;99.90;;;;;;5011927;28;20432;-49
2021/11/06 10:46:53;;;;;;;6.93;5.70;;;10.40;99.90;;;;;;5007882;28;20422;-48
2021/11/06 10:49:42;;;;;;;7.20;5.90;;;10.50;99.90;;;;;;5016253;28;20515;-46
2021/11/06 10:52:14;;;;;;;8.00;5.50;;;10.60;99.90;;;;;;5018774;28;20520;-46
2021/11/06 10:55:03;;;;;;;9.00;5.57;;;10.60;99.90;;;;;;5014761;28;20413;-45
2021/11/06 10:57:30;;;;;;;7.70;5.43;;;10.70;99.90;;;;;;5023015;28;20452;-45
2021/11/06 11:00:18;;;;;;;7.10;6.07;;;10.90;99.90;;;;;;5021936;28;20417;-46
2021/11/06 11:02:44;;;;;;;6.83;5.30;;;10.80;99.90;;;;;;5019205;28;20465;-45
2021/11/06 11:05:35;;;;;;;8.00;5.50;;;10.80;99.90;;;;;;5023506;28;20460;-49
2021/11/06 11:08:12;;;;;;;6.63;5.40;;;11.10;99.90;;;;;;5022129;28;20436;-45
2021/11/06 11:10:40;;;;;;;8.10;5.73;;;11.40;99.90;;;;;;5017806;28;20432;-46
2021/11/06 11:13:21;;;;;;;6.83;5.20;;;11.00;99.90;;;;;;5004704;28;20429;-46
2021/11/06 11:15:50;;;;;;;5.33;4.80;;;11.20;99.90;;;;;;5020740;28;20868;-45
2021/11/06 11:18:44;;;;;;;6.60;5.47;;;11.30;99.90;;;;;;5016685;28;20448;-49
2021/11/06 11:21:10;;;;;;;6.97;6.20;;;11.10;99.90;;;;;;5013053;28;20434;-47
2021/11/06 11:23:37;;;;;;;6.23;5.50;;;11.20;99.90;;;;;;5011418;28;20417;-47
2021/11/06 11:26:03;;;;;;;6.63;4.77;;;11.10;99.90;;;;;;5025022;28;20598;-48
2021/11/06 11:28:29;;;;;;;9.00;5.10;;;10.90;99.90;;;;;;5019493;28;20963;-49
2021/11/06 11:30:55;;;;;;;6.60;5.00;;;10.90;99.90;;;;;;5017607;28;20561;-48
2021/11/06 11:33:21;;;;;;;7.00;4.57;;;10.90;99.90;;;;;;5020964;28;20770;-46
2021/11/06 11:35:49;;;;;;;5.80;4.80;;;11.00;99.90;;;;;;5019084;28;20443;-47
2021/11/06 11:38:15;;;;;;;5.10;4.50;;;11.10;99.90;;;;;;5013912;28;20589;-48
2021/11/06 11:41:06;;;;;;;6.30;5.17;;;11.10;99.90;;;;;;5027934;28;20417;-48
2021/11/06 11:43:50;;;;;;;6.60;5.30;;;11.00;99.90;;;;;;5010172;28;20433;-49
2021/11/06 11:46:24;;;;;;;6.10;4.60;;;11.10;99.90;;;;;;5022372;28;20525;-48
2021/11/06 11:48:54;;;;;;;7.07;4.90;;;11.20;99.90;;;;;;5023379;28;20939;-47
2021/11/06 11:51:31;;;;;;;5.70;4.50;;;11.20;99.90;;;;;;5026659;28;20618;-49
2021/11/06 11:54:05;;;;;;;5.63;4.37;;;11.40;99.90;;;;;;5021008;28;20776;-48
2021/11/06 11:56:31;;;;;;;7.33;4.90;;;11.20;99.90;;;;;;5019069;28;20431;-47
2021/11/06 11:58:57;;;;;;;5.80;4.47;;;11.40;99.90;;;;;;5029751;28;20598;-49
2021/11/06 12:01:24;;;;;;;5.53;5.00;;;11.70;99.90;;;;;;5018767;28;20440;-47
2021/11/06 12:03:51;;;;;;;5.10;4.60;;;11.80;99.90;;;;;;5025604;28;20424;-47
2021/11/06 12:06:25;;;;;;;6.70;5.23;;;11.90;99.90;;;;;;5023472;28;20530;-45
2021/11/06 12:08:54;;;;;;;6.27;5.40;;;12.00;99.90;;;;;;5018401;28;20432;-46
2021/11/06 12:11:30;;;;;;;7.93;5.80;;;12.10;99.90;;;;;;5020310;28;20962;-48
2021/11/06 12:13:57;;;;;;;4.67;4.00;;;12.10;99.90;;;;;;5017650;28;20460;-51
2021/11/06 12:16:39;;;;;;;6.60;4.80;;;12.10;99.90;;;;;;5027148;28;20452;-47
2021/11/06 12:19:05;;;;;;;4.40;4.00;;;12.00;99.90;;;;;;5009968;28;20892;-51
2021/11/06 12:21:34;;;;;;;5.07;4.10;;;12.00;99.90;;;;;;5015106;28;20535;-49
2021/11/06 12:24:08;;;;;;;7.53;4.60;;;12.00;99.90;;;;;;5023630;28;20446;-51
2021/11/06 12:26:43;;;;;;;7.43;3.77;;;11.90;99.90;;;;;;5028843;28;20952;-46
2021/11/06 12:29:14;;;;;;;5.53;4.30;;;11.90;99.90;;;;;;5009974;28;20417;-46
2021/11/06 12:31:44;;;;;;;5.10;3.90;;;11.80;99.90;;;;;;5021698;28;20445;-46
2021/11/06 12:34:30;;;;;;;4.90;3.67;;;11.80;99.90;;;;;;5008856;28;20421;-47
2021/11/06 12:36:57;;;;;;;4.73;3.80;;;12.00;99.90;;;;;;5017173;28;20515;-47
2021/11/06 12:39:45;;;;;;;7.50;4.13;;;12.10;99.90;;;;;;5025551;28;20820;-47
2021/11/06 12:42:14;;;;;;;4.83;3.70;;;11.90;99.90;;;;;;5009713;28;20414;-46
2021/11/06 12:44:50;;;;;;;5.13;3.67;;;11.90;99.90;;;;;;5009789;28;20422;-46
2021/11/06 12:47:16;;;;;;;3.63;3.27;;;11.90;99.90;;;;;;5009823;28;20438;-51
2021/11/06 12:49:42;;;;;;;3.73;3.10;;;11.90;99.90;;;;;;5009792;28;20437;-45